Minerva Virgo — SXXT — position and weather

sailwx.info

Track history (hours):
 
Tides and Currents Weather Stations Pressure Air Temp Water Temp Dewpoint Dewpoint Depression Visibility Wind Speed Wind Dir Waves Ship Positions

Minerva Virgo

Last reported at 2015-Jun-27 13:23 UTC. Time now 2015-Jul-03 21:55 UTC.
Position N 36°23' W 029°19'.

Length 182 m; draft 11.6 m.

Type: Ship. MMSI: 240730000.

Date/timePositionNaut miles runAvg speedWind from/ knotsBaromVisibWave heightAir tempDewpointWater temp
2015-Jun-27 13:23N 36°23' W 029°19'4012.4
2015-Jun-27 10:11N 36°26' W 028°30'811.7
2015-Jun-27 09:32N 36°27' W 028°21'1211.8
2015-Jun-27 08:31N 36°28' W 028°06'2411.7
2015-Jun-27 06:30N 36°30' W 027°37'1111.5
2015-Jun-27 05:32N 36°31' W 027°23'1111.5
2015-Jun-27 04:32N 36°32' W 027°09'1211.9
2015-Jun-27 03:32N 36°34' W 026°54'1111.5
2015-Jun-27 02:33N 36°34' W 026°40'1211.4
2015-Jun-27 01:32N 36°36' W 026°26'1111.5
2015-Jun-27 00:33N 36°37' W 026°12'1211.8
2015-Jun-26 23:33N 36°38' W 025°57'1211.6
2015-Jun-26 22:33N 36°39' W 025°43'1111.4
2015-Jun-26 21:33N 36°40' W 025°29'1111.3
2015-Jun-26 20:33N 36°41' W 025°14'1111.3
2015-Jun-26 19:33N 36°42' W 025°00'1111.2
2015-Jun-26 18:33N 36°43' W 024°46'1111.3
2015-Jun-26 17:33N 36°43' W 024°32'1111.5
2015-Jun-26 16:34N 36°43' W 024°18'1111.4
2015-Jun-26 15:33N 36°44' W 024°04'1111.4
2015-Jun-26 14:33N 36°45' W 023°50'1211.6
2015-Jun-26 13:31N 36°45' W 023°34'3611.7
2015-Jun-26 10:28N 36°46' W 022°50'1211.8
2015-Jun-26 09:27N 36°46' W 022°35'1112.5
2015-Jun-26 08:34N 36°47' W 022°21'1712.6
2015-Jun-26 07:12N 36°47' W 022°00'  
2015-Jun-23 23:25N 36°02' W 007°47'4112.1
2015-Jun-23 20:04N 35°58' W 006°57'612.3
2015-Jun-23 19:33N 35°58' W 006°49'612.3
2015-Jun-23 19:05N 35°59' W 006°42'198 8.4
2015-Jun-22 19:33N 36°23' W 002°39'1312.8
2015-Jun-22 18:33N 36°24' W 002°23'1312.6
2015-Jun-22 17:34N 36°27' W 002°08'1212.5
2015-Jun-22 16:34N 36°29' W 001°52'1212.4
2015-Jun-22 15:34N 36°32' W 001°37'1212.0
2015-Jun-22 14:33N 36°35' W 001°23'1812.3
2015-Jun-22 13:05N 36°39' W 001°01'712.3
2015-Jun-22 12:30N 36°41' W 000°52'1212.4
2015-Jun-22 11:34N 36°43' W 000°38'1312.6
2015-Jun-22 10:34N 36°46' W 000°23'1212.3
2015-Jun-22 09:33N 36°49' W 000°08'1312.7
2015-Jun-22 08:33N 36°52' E 000°08'1313.1
2015-Jun-22 07:33N 36°55' E 000°24'1313.0
2015-Jun-22 06:32N 36°59' E 000°40'1313.1
2015-Jun-22 05:33N 37°01' E 000°56'1413.7
2015-Jun-22 04:33N 37°05' E 001°12'2813.5
2015-Jun-22 02:30N 37°11' E 001°46'1913.5
2015-Jun-22 01:07N 37°15' E 002°09'913.4
2015-Jun-22 00:25N 37°17' E 002°20'1113.1
2015-Jun-21 23:33N 37°20' E 002°34'1413.2
2015-Jun-21 22:31N 37°24' E 002°51'1313.0
2015-Jun-21 21:33N 37°26' E 003°06'1812.8
2015-Jun-21 20:09N 37°27' E 003°29'49012.3
2015-Jun-20 04:27N 36°40' E 013°40'1112.6
2015-Jun-20 03:33N 36°37' E 013°53'1312.6
2015-Jun-20 02:33N 36°33' E 014°08'1312.6
2015-Jun-20 01:33N 36°30' E 014°23'1212.5
2015-Jun-20 00:33N 36°26' E 014°38'47910.4
2015-Jun-18 02:30N 37°44' E 024°31'  
Track history (hours):
 
Tides and Currents Weather Stations Pressure Air Temp Water Temp Dewpoint Dewpoint Depression Visibility Wind Speed Wind Dir Waves Ship Positions

Minerva Virgo

Last reported at 2015-Jun-27 13:23 UTC. Time now 2015-Jul-03 21:55 UTC.
Position N 36°23' W 029°19'.

Length 182 m; draft 11.6 m.

Type: Ship. MMSI: 240730000.

Date/timePositionNaut miles runAvg speedWind from/ knotsBaromVisibWave heightAir tempDewpointWater temp
2015-Jun-27 13:23N 36°23' W 029°19'4012.4
2015-Jun-27 10:11N 36°26' W 028°30'811.7
2015-Jun-27 09:32N 36°27' W 028°21'1211.8
2015-Jun-27 08:31N 36°28' W 028°06'2411.7
2015-Jun-27 06:30N 36°30' W 027°37'1111.5
2015-Jun-27 05:32N 36°31' W 027°23'1111.5
2015-Jun-27 04:32N 36°32' W 027°09'1211.9
2015-Jun-27 03:32N 36°34' W 026°54'1111.5
2015-Jun-27 02:33N 36°34' W 026°40'1211.4
2015-Jun-27 01:32N 36°36' W 026°26'1111.5
2015-Jun-27 00:33N 36°37' W 026°12'1211.8
2015-Jun-26 23:33N 36°38' W 025°57'1211.6
2015-Jun-26 22:33N 36°39' W 025°43'1111.4
2015-Jun-26 21:33N 36°40' W 025°29'1111.3
2015-Jun-26 20:33N 36°41' W 025°14'1111.3
2015-Jun-26 19:33N 36°42' W 025°00'1111.2
2015-Jun-26 18:33N 36°43' W 024°46'1111.3
2015-Jun-26 17:33N 36°43' W 024°32'1111.5
2015-Jun-26 16:34N 36°43' W 024°18'1111.4
2015-Jun-26 15:33N 36°44' W 024°04'1111.4
2015-Jun-26 14:33N 36°45' W 023°50'1211.6
2015-Jun-26 13:31N 36°45' W 023°34'3611.7
2015-Jun-26 10:28N 36°46' W 022°50'1211.8
2015-Jun-26 09:27N 36°46' W 022°35'1112.5
2015-Jun-26 08:34N 36°47' W 022°21'1712.6
2015-Jun-26 07:12N 36°47' W 022°00'  
2015-Jun-23 23:25N 36°02' W 007°47'4112.1
2015-Jun-23 20:04N 35°58' W 006°57'612.3
2015-Jun-23 19:33N 35°58' W 006°49'612.3
2015-Jun-23 19:05N 35°59' W 006°42'198 8.4
2015-Jun-22 19:33N 36°23' W 002°39'1312.8
2015-Jun-22 18:33N 36°24' W 002°23'1312.6
2015-Jun-22 17:34N 36°27' W 002°08'1212.5
2015-Jun-22 16:34N 36°29' W 001°52'1212.4
2015-Jun-22 15:34N 36°32' W 001°37'1212.0
2015-Jun-22 14:33N 36°35' W 001°23'1812.3
2015-Jun-22 13:05N 36°39' W 001°01'712.3
2015-Jun-22 12:30N 36°41' W 000°52'1212.4
2015-Jun-22 11:34N 36°43' W 000°38'1312.6
2015-Jun-22 10:34N 36°46' W 000°23'1212.3
2015-Jun-22 09:33N 36°49' W 000°08'1312.7
2015-Jun-22 08:33N 36°52' E 000°08'1313.1
2015-Jun-22 07:33N 36°55' E 000°24'1313.0
2015-Jun-22 06:32N 36°59' E 000°40'1313.1
2015-Jun-22 05:33N 37°01' E 000°56'1413.7
2015-Jun-22 04:33N 37°05' E 001°12'2813.5
2015-Jun-22 02:30N 37°11' E 001°46'1913.5
2015-Jun-22 01:07N 37°15' E 002°09'913.4
2015-Jun-22 00:25N 37°17' E 002°20'1113.1
2015-Jun-21 23:33N 37°20' E 002°34'1413.2
2015-Jun-21 22:31N 37°24' E 002°51'1313.0
2015-Jun-21 21:33N 37°26' E 003°06'1812.8
2015-Jun-21 20:09N 37°27' E 003°29'49012.3
2015-Jun-20 04:27N 36°40' E 013°40'1112.6
2015-Jun-20 03:33N 36°37' E 013°53'1312.6
2015-Jun-20 02:33N 36°33' E 014°08'1312.6
2015-Jun-20 01:33N 36°30' E 014°23'1212.5
2015-Jun-20 00:33N 36°26' E 014°38'47910.4
2015-Jun-18 02:30N 37°44' E 024°31'  

Dump ship's entire track history